createdAt,value
2023-01-30T00:02:18.002Z,99968.91
2023-01-30T00:04:46.491Z,99963.84
2023-01-30T00:07:15.109Z,99970.63
2023-01-30T00:09:43.514Z,99940.16
2023-01-30T00:12:11.855Z,99946.94
2023-01-30T00:14:40.319Z,99951.16
2023-01-30T00:17:11.100Z,99942.78
2023-01-30T00:19:40.947Z,99927.56
2023-01-30T00:22:09.618Z,99926.72
2023-01-30T00:24:38.099Z,99913.22
2023-01-30T00:27:06.831Z,99919.16
2023-01-30T00:29:37.631Z,99909.88
2023-01-30T00:32:06.623Z,99909.03
2023-01-30T00:34:35.004Z,99890.38
2023-01-30T00:37:08.457Z,99894.59
2023-01-30T00:39:37.207Z,99881.03
2023-01-30T00:42:23.273Z,99876.78
2023-01-30T00:45:08.983Z,99869.88
2023-01-30T00:47:37.551Z,99863.09
2023-01-30T00:50:07.494Z,99866.50
2023-01-30T00:52:37.389Z,99865.69
2023-01-30T00:55:06.766Z,99857.28
2023-01-30T00:57:35.257Z,99833.56
2023-01-30T01:00:05.401Z,99826.81
2023-01-30T01:02:33.985Z,99831.06
2023-01-30T01:05:02.609Z,99824.28
2023-01-30T01:07:30.991Z,99829.38
2023-01-30T01:10:00.713Z,99801.44
2023-01-30T01:12:29.091Z,99793.81
2023-01-30T01:14:57.521Z,99792.13
2023-01-30T01:17:26.127Z,99797.28
2023-01-30T01:19:54.541Z,99776.97
2023-01-30T01:22:22.946Z,99764.31
2023-01-30T01:24:51.331Z,99756.75
2023-01-30T01:27:21.108Z,99754.22
2023-01-30T01:29:49.574Z,99743.28
2023-01-30T01:32:18.110Z,99739.06
2023-01-30T01:34:46.533Z,99736.59
2023-01-30T01:37:14.952Z,99730.72
2023-01-30T01:40:00.846Z,99736.66
2023-01-30T01:42:34.772Z,99723.09
2023-01-30T01:45:15.393Z,99723.16
2023-01-30T01:47:49.367Z,99710.44
2023-01-30T01:50:24.117Z,99713.00
2023-01-30T01:52:56.631Z,99696.06
2023-01-30T01:55:26.233Z,99683.41
2023-01-30T01:58:00.738Z,99689.31
2023-01-30T02:00:29.486Z,99684.22
2023-01-30T02:03:01.394Z,99680.00
2023-01-30T02:05:36.257Z,99670.66
2023-01-30T02:08:10.273Z,99677.41
2023-01-30T02:10:47.031Z,99664.75
2023-01-30T02:13:16.836Z,99677.47
2023-01-30T02:15:45.384Z,99665.63
2023-01-30T02:18:15.152Z,99664.78
2023-01-30T02:21:28.699Z,99642.75
2023-01-30T02:24:54.496Z,99636.75
2023-01-30T02:27:43.139Z,99630.88
2023-01-30T02:31:00.399Z,99636.78
2023-01-30T02:33:41.311Z,99631.69
2023-01-30T02:36:21.185Z,99641.03
2023-01-30T02:38:58.674Z,99630.00
2023-01-30T02:41:38.040Z,99630.06
2023-01-30T02:44:12.893Z,99610.56
2023-01-30T02:46:54.346Z,99624.06
2023-01-30T02:49:30.341Z,99611.38
2023-01-30T02:52:01.394Z,99600.34
2023-01-30T02:54:29.882Z,99590.16
2023-01-30T02:57:00.542Z,99590.09
2023-01-30T02:59:34.386Z,99587.50
2023-01-30T03:02:46.571Z,99577.34
2023-01-30T03:05:59.476Z,99569.69
2023-01-30T03:08:38.455Z,99565.44
2023-01-30T03:11:10.537Z,99569.69
2023-01-30T03:13:50.458Z,99563.75
2023-01-30T03:16:23.879Z,99556.94
2023-01-30T03:18:54.022Z,99541.69
2023-01-30T03:21:22.360Z,99540.00
2023-01-30T03:23:50.696Z,99534.84
2023-01-30T03:26:24.065Z,99513.72
2023-01-30T03:28:53.959Z,99513.66
2023-01-30T03:31:22.636Z,99498.50
2023-01-30T03:33:51.053Z,99495.06
2023-01-30T03:36:21.001Z,99486.53
2023-01-30T03:38:49.436Z,99485.69
2023-01-30T03:41:17.734Z,99471.31
2023-01-30T03:43:46.088Z,99479.69
2023-01-30T03:46:14.385Z,99466.97
2023-01-30T03:48:42.879Z,99461.88
2023-01-30T03:51:11.209Z,99462.69
2023-01-30T03:53:40.935Z,99464.38
2023-01-30T03:56:09.317Z,99455.91
2023-01-30T03:58:37.680Z,99446.56
2023-01-30T04:01:06.511Z,99443.16
2023-01-30T04:03:35.576Z,99440.63
2023-01-30T04:06:03.998Z,99428.78
2023-01-30T04:08:32.321Z,99427.09
2023-01-30T04:11:02.129Z,99419.47
2023-01-30T04:13:30.481Z,99416.88
2023-01-30T04:16:18.562Z,99416.88
2023-01-30T04:18:46.969Z,99413.50
2023-01-30T04:21:15.936Z,99396.59
2023-01-30T04:23:44.612Z,99394.00
2023-01-30T04:26:14.927Z,99386.41
2023-01-30T04:28:44.603Z,99375.38
2023-01-30T04:31:13.330Z,99375.28
2023-01-30T04:33:42.996Z,99364.25
2023-01-30T04:36:12.273Z,99365.97
2023-01-30T04:38:41.112Z,99362.59
2023-01-30T04:41:09.630Z,99354.94
2023-01-30T04:43:39.360Z,99332.13
2023-01-30T04:46:07.753Z,99335.50
2023-01-30T04:48:36.145Z,99328.75
2023-01-30T04:51:04.817Z,99327.94
2023-01-30T04:53:33.168Z,99323.69
2023-01-30T04:56:01.512Z,99324.53
2023-01-30T04:58:29.883Z,99321.13
2023-01-30T05:01:15.550Z,99321.97
2023-01-30T05:03:44.402Z,99330.50
2023-01-30T05:06:12.846Z,99325.44
2023-01-30T05:08:41.176Z,99310.22
2023-01-30T05:11:09.534Z,99300.06
2023-01-30T05:13:37.853Z,99294.22
2023-01-30T05:16:08.450Z,99287.50
2023-01-30T05:18:36.804Z,99282.44
2023-01-30T05:21:07.905Z,99274.88
2023-01-30T05:23:36.593Z,99249.50
2023-01-30T05:26:05.544Z,99262.19
2023-01-30T05:28:34.510Z,99246.13
2023-01-30T05:31:03.459Z,99245.25
2023-01-30T05:33:33.465Z,99252.84
2023-01-30T05:36:02.037Z,99247.75
2023-01-30T05:38:30.642Z,99243.53
2023-01-30T05:41:03.024Z,99236.78
2023-01-30T05:43:31.941Z,99238.47
2023-01-30T05:46:02.948Z,99228.31
2023-01-30T05:48:34.026Z,99225.84
2023-01-30T05:51:02.709Z,99222.47
2023-01-30T05:53:35.073Z,99217.34
2023-01-30T05:56:06.274Z,99215.63
2023-01-30T05:58:34.923Z,99208.03
2023-01-30T06:01:04.232Z,99213.97
2023-01-30T06:03:34.194Z,99201.25
2023-01-30T06:06:03.941Z,99196.13
2023-01-30T06:08:32.988Z,99196.13
2023-01-30T06:11:02.913Z,99190.19
2023-01-30T06:13:33.846Z,99163.16
2023-01-30T06:16:02.618Z,99170.75
2023-01-30T06:18:30.994Z,99164.03
2023-01-30T06:21:00.775Z,99158.06
2023-01-30T06:23:29.282Z,99164.78
2023-01-30T06:25:57.826Z,99165.63
2023-01-30T06:28:28.238Z,99170.69
2023-01-30T06:30:56.699Z,99171.56
2023-01-30T06:33:25.076Z,99168.16
2023-01-30T06:35:55.421Z,99157.97
2023-01-30T06:38:26.241Z,99151.22
2023-01-30T06:40:54.780Z,99154.63
2023-01-30T06:43:23.164Z,99152.91
2023-01-30T06:45:51.494Z,99147.84
2023-01-30T06:48:19.899Z,99138.53
2023-01-30T06:50:49.150Z,99127.56
2023-01-30T06:53:17.624Z,99125.88
2023-01-30T06:55:47.565Z,99134.31
2023-01-30T06:58:16.431Z,99130.94
2023-01-30T07:00:45.131Z,99132.66
2023-01-30T07:03:14.893Z,99120.84
2023-01-30T07:05:45.132Z,99122.56
2023-01-30T07:08:14.679Z,99124.31
2023-01-30T07:10:47.065Z,99111.59
2023-01-30T07:13:15.707Z,99124.28
2023-01-30T07:15:44.102Z,99105.69
2023-01-30T07:18:12.542Z,99100.63
2023-01-30T07:20:42.223Z,99083.69
2023-01-30T07:23:10.571Z,99092.16
2023-01-30T07:25:38.930Z,99091.34
2023-01-30T07:28:08.711Z,99099.75
2023-01-30T07:30:40.163Z,99078.59
2023-01-30T07:33:08.594Z,99076.06
2023-01-30T07:35:38.728Z,99087.88
2023-01-30T07:38:07.489Z,99081.13
2023-01-30T07:40:36.223Z,99077.69
2023-01-30T07:43:07.585Z,99075.13
2023-01-30T07:45:41.029Z,99063.25
2023-01-30T07:48:11.002Z,99063.16
2023-01-30T07:50:39.805Z,99044.56
2023-01-30T07:53:10.422Z,99058.03
2023-01-30T07:55:39.392Z,99057.19
2023-01-30T07:58:07.773Z,99053.81
2023-01-30T08:00:37.570Z,99046.16
2023-01-30T08:03:06.093Z,99044.44
2023-01-30T08:05:34.902Z,99044.38
2023-01-30T08:08:03.608Z,99033.41
2023-01-30T08:10:32.148Z,99040.09
2023-01-30T08:13:00.604Z,99035.84
2023-01-30T08:15:31.623Z,99028.22
2023-01-30T08:18:02.434Z,99019.78
2023-01-30T08:20:30.854Z,99025.69
2023-01-30T08:23:01.994Z,99011.34
2023-01-30T08:25:31.148Z,99014.72
2023-01-30T08:28:00.458Z,99007.13
2023-01-30T08:30:30.629Z,99007.97
2023-01-30T08:33:00.857Z,99007.97
2023-01-30T08:35:29.466Z,99010.50
2023-01-30T08:37:57.885Z,99009.63
2023-01-30T08:40:26.473Z,99002.84
2023-01-30T08:42:54.893Z,99002.00
2023-01-30T08:45:23.275Z,99007.09
2023-01-30T08:47:51.628Z,98993.56
2023-01-30T08:50:21.836Z,99002.84
2023-01-30T08:52:50.194Z,98996.94
2023-01-30T08:55:19.141Z,98984.19
2023-01-30T08:57:48.032Z,98984.19
2023-01-30T09:00:19.028Z,98974.88
2023-01-30T09:02:47.830Z,98963.88
2023-01-30T09:05:16.462Z,98971.53
2023-01-30T09:07:46.663Z,98972.38
2023-01-30T09:10:21.220Z,98965.66
2023-01-30T09:12:49.771Z,98961.44
2023-01-30T09:15:18.236Z,98944.56
2023-01-30T09:17:46.556Z,98942.91
2023-01-30T09:20:15.136Z,98939.44
2023-01-30T09:22:44.861Z,98933.53
2023-01-30T09:25:13.305Z,98928.41
2023-01-30T09:27:44.511Z,98928.41
2023-01-30T09:30:14.173Z,98921.69
2023-01-30T09:32:42.630Z,98917.50
2023-01-30T09:35:11.069Z,98935.25
2023-01-30T09:37:39.529Z,98923.44
2023-01-30T09:40:17.574Z,98909.88
2023-01-30T09:43:26.913Z,98910.72
2023-01-30T09:46:19.184Z,98906.50
2023-01-30T09:49:03.688Z,98903.19
2023-01-30T09:51:48.077Z,98886.31
2023-01-30T09:54:24.517Z,98878.72
2023-01-30T09:57:21.466Z,98877.88
2023-01-30T10:00:08.503Z,98884.63
2023-01-30T10:02:48.793Z,98875.34
2023-01-30T10:05:17.697Z,98868.66
2023-01-30T10:08:04.988Z,98868.66
2023-01-30T10:10:55.059Z,98869.56
2023-01-30T10:14:01.481Z,98856.91
2023-01-30T10:16:37.585Z,98857.81
2023-01-30T10:19:45.775Z,98853.59
2023-01-30T10:22:33.410Z,98840.97
2023-01-30T10:25:21.213Z,98831.69
2023-01-30T10:27:57.378Z,98829.16
2023-01-30T10:30:27.283Z,98826.63
2023-01-30T10:33:03.312Z,98813.03
2023-01-30T10:35:36.898Z,98810.50
2023-01-30T10:38:17.046Z,98807.13
2023-01-30T10:40:53.508Z,98817.25
2023-01-30T10:43:30.032Z,98809.72
2023-01-30T10:46:11.879Z,98802.16
2023-01-30T10:48:56.359Z,98803.03
2023-01-30T10:51:39.636Z,98791.22
2023-01-30T10:54:14.866Z,98780.25
2023-01-30T10:56:52.691Z,98798.00
2023-01-30T10:59:29.294Z,98796.28
2023-01-30T11:02:20.988Z,98788.69
2023-01-30T11:04:59.595Z,98794.59
2023-01-30T11:07:31.080Z,98788.69
2023-01-30T11:10:01.169Z,98779.41
2023-01-30T11:12:29.600Z,98781.94
2023-01-30T11:15:00.710Z,98777.72
2023-01-30T11:17:38.595Z,98769.25
2023-01-30T11:20:14.655Z,98755.75
2023-01-30T11:22:49.525Z,98763.38
2023-01-30T11:25:22.109Z,98751.53
2023-01-30T11:27:56.431Z,98757.50
2023-01-30T11:30:30.628Z,98755.00
2023-01-30T11:33:15.291Z,98753.34
2023-01-30T11:35:54.379Z,98744.91
2023-01-30T11:38:25.614Z,98736.50
2023-01-30T11:41:14.895Z,98731.47
2023-01-30T11:43:43.271Z,98729.78
2023-01-30T11:46:15.337Z,98722.22
2023-01-30T11:49:11.077Z,98722.22
2023-01-30T11:51:45.561Z,98723.91
2023-01-30T11:54:19.595Z,98720.50
2023-01-30T11:56:54.020Z,98716.25
2023-01-30T11:59:29.066Z,98717.09
2023-01-30T12:02:07.083Z,98726.44
2023-01-30T12:04:37.133Z,98714.56
2023-01-30T12:07:18.371Z,98724.75
2023-01-30T12:09:46.830Z,98712.88
2023-01-30T12:12:33.347Z,98709.53
2023-01-30T12:15:21.195Z,98710.34
2023-01-30T12:18:02.290Z,98718.81
2023-01-30T12:20:49.583Z,98695.13
2023-01-30T12:23:28.136Z,98697.69
2023-01-30T12:26:05.569Z,98702.75
2023-01-30T12:28:42.508Z,98701.06
2023-01-30T12:31:20.231Z,98702.75
2023-01-30T12:33:50.273Z,98705.28
2023-01-30T12:36:34.077Z,98705.31
2023-01-30T12:39:26.147Z,98703.66
2023-01-30T12:42:23.918Z,98700.25
2023-01-30T12:45:12.688Z,98692.66
2023-01-30T12:48:06.126Z,98695.19
2023-01-30T12:50:55.442Z,98696.06
2023-01-30T12:53:37.755Z,98685.91
2023-01-30T12:56:54.478Z,98696.06
2023-01-30T12:59:32.660Z,98699.47
2023-01-30T13:02:26.876Z,98695.22
2023-01-30T13:05:08.042Z,98693.53
2023-01-30T13:07:47.303Z,98688.47
2023-01-30T13:10:27.000Z,98685.09
2023-01-30T13:13:10.569Z,98682.56
2023-01-30T13:15:46.346Z,98680.88
2023-01-30T13:18:21.522Z,98679.19
2023-01-30T13:21:01.430Z,98680.91
2023-01-30T13:23:50.001Z,98678.34
2023-01-30T13:26:24.187Z,98668.19
2023-01-30T13:28:58.928Z,98684.25
2023-01-30T13:31:32.766Z,98673.28
2023-01-30T13:34:08.044Z,98680.91
2023-01-30T13:36:44.941Z,98680.91
2023-01-30T13:39:20.641Z,98678.38
2023-01-30T13:41:56.752Z,98685.13
2023-01-30T13:44:31.174Z,98675.00
2023-01-30T13:47:09.567Z,98665.69
2023-01-30T13:49:48.294Z,98680.94
2023-01-30T13:52:28.633Z,98668.22
2023-01-30T13:55:10.065Z,98672.47
2023-01-30T13:57:48.837Z,98666.53
2023-01-30T14:00:32.083Z,98671.63
2023-01-30T14:03:32.674Z,98672.47
2023-01-30T14:06:27.507Z,98675.03
2023-01-30T14:08:59.539Z,98675.00
2023-01-30T14:11:47.601Z,98683.50
2023-01-30T14:14:36.815Z,98688.53
2023-01-30T14:17:15.419Z,98694.47
2023-01-30T14:20:03.015Z,98692.81
2023-01-30T14:22:41.198Z,98696.19
2023-01-30T14:25:50.739Z,98702.09
2023-01-30T14:28:52.218Z,98705.50
2023-01-30T14:31:55.611Z,98700.44
2023-01-30T14:35:06.888Z,98698.75
2023-01-30T14:38:12.793Z,98704.69
2023-01-30T14:40:47.426Z,98700.44
2023-01-30T14:43:40.382Z,98711.47
2023-01-30T14:46:54.314Z,98705.53
2023-01-30T14:49:32.374Z,98703.84
2023-01-30T14:52:01.435Z,98697.06
2023-01-30T14:54:42.398Z,98708.91
2023-01-30T14:57:25.118Z,98710.59
2023-01-30T15:00:19.553Z,98698.75
2023-01-30T15:02:53.773Z,98699.63
2023-01-30T15:05:32.085Z,98705.53
2023-01-30T15:08:08.968Z,98702.16
2023-01-30T15:11:06.765Z,98700.44
2023-01-30T15:13:56.787Z,98710.63
2023-01-30T15:16:59.926Z,98709.78
2023-01-30T15:20:02.410Z,98714.84
2023-01-30T15:22:48.234Z,98709.78
2023-01-30T15:25:40.507Z,98714.84
2023-01-30T15:28:27.043Z,98712.31
2023-01-30T15:31:09.871Z,98717.41
2023-01-30T15:33:46.845Z,98725.88
2023-01-30T15:36:27.675Z,98720.81
2023-01-30T15:39:03.161Z,98725.88
2023-01-30T15:41:38.148Z,98722.50
2023-01-30T15:44:40.111Z,98719.09
2023-01-30T15:47:32.206Z,98721.66
2023-01-30T15:50:04.792Z,98724.19
2023-01-30T15:52:44.939Z,98727.56
2023-01-30T15:55:21.688Z,98737.75
2023-01-30T15:57:57.078Z,98737.75
2023-01-30T16:00:32.759Z,98740.28
2023-01-30T16:03:03.316Z,98747.06
2023-01-30T16:05:32.024Z,98746.22
2023-01-30T16:08:19.315Z,98739.47
2023-01-30T16:10:49.884Z,98743.69
2023-01-30T16:13:20.935Z,98744.53
2023-01-30T16:15:55.100Z,98733.53
2023-01-30T16:18:33.253Z,98736.06
2023-01-30T16:21:07.038Z,98749.59
2023-01-30T16:23:38.847Z,98738.63
2023-01-30T16:26:17.478Z,98736.06
2023-01-30T16:28:46.456Z,98730.16
2023-01-30T16:31:15.290Z,98729.28
2023-01-30T16:33:44.157Z,98734.38
2023-01-30T16:36:33.242Z,98733.53
2023-01-30T16:39:02.031Z,98746.25
2023-01-30T16:41:34.033Z,98737.75
2023-01-30T16:44:23.186Z,98744.56
2023-01-30T16:47:00.549Z,98747.94
2023-01-30T16:49:43.956Z,98746.25
2023-01-30T16:52:20.679Z,98758.94
2023-01-30T16:54:52.579Z,98766.59
2023-01-30T16:57:40.502Z,98757.25
2023-01-30T17:00:21.913Z,98753.88
2023-01-30T17:02:55.539Z,98758.13
2023-01-30T17:05:26.806Z,98753.03
2023-01-30T17:07:56.834Z,98746.25
2023-01-30T17:10:53.372Z,98753.03
2023-01-30T17:13:36.485Z,98758.13
2023-01-30T17:16:34.156Z,98749.66
2023-01-30T17:19:02.697Z,98752.19
2023-01-30T17:21:36.843Z,98753.88
2023-01-30T17:24:06.970Z,98759.78
2023-01-30T17:26:35.760Z,98752.19
2023-01-30T17:29:07.196Z,98748.81
2023-01-30T17:31:37.945Z,98757.28
2023-01-30T17:34:06.385Z,98769.97
2023-01-30T17:36:34.777Z,98774.22
2023-01-30T17:39:03.151Z,98773.38
2023-01-30T17:41:33.542Z,98773.38
2023-01-30T17:44:01.932Z,98772.53
2023-01-30T17:46:37.182Z,98765.72
2023-01-30T17:49:05.829Z,98775.91
2023-01-30T17:51:34.296Z,98778.44
2023-01-30T17:54:02.853Z,98774.22
2023-01-30T17:56:37.823Z,98776.75
2023-01-30T17:59:08.580Z,98771.66
2023-01-30T18:01:38.393Z,98779.31
2023-01-30T18:04:07.019Z,98763.19
2023-01-30T18:06:36.277Z,98769.16
2023-01-30T18:09:04.852Z,98765.72
2023-01-30T18:11:33.620Z,98772.50
2023-01-30T18:14:02.048Z,98779.31
2023-01-30T18:16:32.030Z,98780.97
2023-01-30T18:19:05.564Z,98784.41
2023-01-30T18:21:36.237Z,98789.50
2023-01-30T18:24:05.272Z,98781.84
2023-01-30T18:26:34.292Z,98786.09
2023-01-30T18:29:02.728Z,98792.88
2023-01-30T18:31:32.182Z,98786.06
2023-01-30T18:34:01.979Z,98786.91
2023-01-30T18:36:30.515Z,98781.00
2023-01-30T18:38:58.876Z,98793.72
2023-01-30T18:41:27.557Z,98791.19
2023-01-30T18:43:57.545Z,98782.69
2023-01-30T18:46:27.123Z,98790.31
2023-01-30T18:48:57.755Z,98786.91
2023-01-30T18:51:31.550Z,98783.53
2023-01-30T18:54:01.326Z,98771.66
2023-01-30T18:56:32.735Z,98775.06
2023-01-30T18:59:04.320Z,98778.44
2023-01-30T19:01:36.729Z,98780.13
2023-01-30T19:04:09.216Z,98786.91
2023-01-30T19:06:42.909Z,98775.06
2023-01-30T19:09:15.599Z,98781.84
2023-01-30T19:12:01.643Z,98775.91
2023-01-30T19:14:30.088Z,98781.00
2023-01-30T19:16:58.588Z,98784.41
2023-01-30T19:19:27.264Z,98781.00
2023-01-30T19:21:57.076Z,98795.41
2023-01-30T19:24:25.979Z,98797.09
2023-01-30T19:26:54.824Z,98801.34
2023-01-30T19:29:26.303Z,98790.31
2023-01-30T19:31:55.348Z,98794.56
2023-01-30T19:34:29.936Z,98794.53
2023-01-30T19:37:01.211Z,98797.97
2023-01-30T19:39:29.908Z,98808.97
2023-01-30T19:41:58.336Z,98804.72
2023-01-30T19:44:26.821Z,98813.22
2023-01-30T19:46:55.795Z,98803.88
2023-01-30T19:49:24.486Z,98809.00
2023-01-30T19:51:52.855Z,98813.19
2023-01-30T19:54:22.898Z,98816.59
2023-01-30T19:56:51.830Z,98820.00
2023-01-30T19:59:20.309Z,98819.16
2023-01-30T20:01:48.812Z,98821.69
2023-01-30T20:04:17.433Z,98820.84
2023-01-30T20:06:46.267Z,98814.06
2023-01-30T20:09:16.236Z,98814.06
2023-01-30T20:11:46.418Z,98815.75
2023-01-30T20:14:15.522Z,98816.59
2023-01-30T20:16:43.992Z,98811.50
2023-01-30T20:19:16.891Z,98818.31
2023-01-30T20:21:45.891Z,98819.16
2023-01-30T20:24:15.025Z,98820.84
2023-01-30T20:26:48.254Z,98814.91
2023-01-30T20:29:18.088Z,98825.94
2023-01-30T20:31:46.883Z,98821.69
2023-01-30T20:34:16.488Z,98820.84
2023-01-30T20:36:45.020Z,98831.84
2023-01-30T20:39:14.387Z,98851.34
2023-01-30T20:41:43.072Z,98850.53
2023-01-30T20:44:15.056Z,98849.69
2023-01-30T20:46:46.915Z,98847.09
2023-01-30T20:49:18.609Z,98861.50
2023-01-30T20:51:48.960Z,98868.31
2023-01-30T20:54:20.303Z,98868.31
2023-01-30T20:56:51.236Z,98870.03
2023-01-30T20:59:24.277Z,98883.56
2023-01-30T21:01:53.367Z,98873.41
2023-01-30T21:04:24.400Z,98883.56
2023-01-30T21:07:05.843Z,98883.56
2023-01-30T21:09:34.506Z,98896.28
2023-01-30T21:12:02.988Z,98897.13
2023-01-30T21:14:36.060Z,98909.84
2023-01-30T21:17:05.028Z,98899.66
2023-01-30T21:19:33.577Z,98905.59
2023-01-30T21:22:07.525Z,98898.81
2023-01-30T21:24:36.735Z,98899.66
2023-01-30T21:27:05.615Z,98907.28
2023-01-30T21:29:36.693Z,98908.97
2023-01-30T21:32:05.563Z,98914.06
2023-01-30T21:34:35.433Z,98914.03
2023-01-30T21:37:21.285Z,98915.75
2023-01-30T21:40:07.167Z,98908.94
2023-01-30T21:42:53.037Z,98910.63
2023-01-30T21:45:25.653Z,98908.09
2023-01-30T21:47:55.961Z,98914.88
2023-01-30T21:50:24.527Z,98911.50
2023-01-30T21:52:53.224Z,98907.22
2023-01-30T21:55:21.866Z,98912.28
2023-01-30T21:57:50.450Z,98927.56
2023-01-30T22:00:19.521Z,98924.19
2023-01-30T22:02:52.214Z,98924.16
2023-01-30T22:05:20.949Z,98925.00
2023-01-30T22:07:49.646Z,98925.84
2023-01-30T22:10:18.624Z,98919.06
2023-01-30T22:12:48.246Z,98925.00
2023-01-30T22:15:16.835Z,98931.75
2023-01-30T22:17:45.327Z,98928.34
2023-01-30T22:20:16.074Z,98930.91
2023-01-30T22:22:44.559Z,98940.25
2023-01-30T22:25:13.079Z,98936.00
2023-01-30T22:27:41.450Z,98932.63
2023-01-30T22:30:12.103Z,98953.00
2023-01-30T22:32:40.481Z,98955.53
2023-01-30T22:35:09.805Z,98947.91
2023-01-30T22:37:39.624Z,98959.78
2023-01-30T22:40:09.965Z,98969.97
2023-01-30T22:42:38.490Z,98968.28
2023-01-30T22:45:08.348Z,98968.28
2023-01-30T22:47:37.159Z,98966.59
2023-01-30T22:50:06.703Z,98969.09
2023-01-30T22:52:35.134Z,98961.50
2023-01-30T22:55:05.056Z,98966.59
2023-01-30T22:57:33.468Z,98955.56
2023-01-30T23:00:01.852Z,98961.50
2023-01-30T23:02:30.447Z,98970.81
2023-01-30T23:04:59.820Z,98964.03
2023-01-30T23:07:28.493Z,98957.28
2023-01-30T23:09:56.881Z,98967.44
2023-01-30T23:12:43.893Z,98956.44
2023-01-30T23:15:12.802Z,98956.44
2023-01-30T23:17:59.013Z,98961.50
2023-01-30T23:20:27.395Z,98966.59
2023-01-30T23:22:55.772Z,98964.06
2023-01-30T23:25:24.116Z,98960.66
2023-01-30T23:27:53.900Z,98963.22
2023-01-30T23:30:22.341Z,98958.97
2023-01-30T23:32:50.794Z,98962.38
2023-01-30T23:35:19.369Z,98961.50
2023-01-30T23:38:05.302Z,98959.81
2023-01-30T23:40:33.734Z,98974.25
2023-01-30T23:43:03.452Z,98959.81
2023-01-30T23:45:32.000Z,98964.06
2023-01-30T23:48:00.400Z,98968.31
2023-01-30T23:50:29.003Z,98964.09
2023-01-30T23:52:57.748Z,98965.78
2023-01-30T23:55:26.156Z,98977.63
2023-01-30T23:57:54.637Z,98970.00
